Time;durP1;ratioP1;P1;durP2;ratioP2;P2;SDS_P1;SDS_P2;PMS_P1;PMS_P2;Temp;Humidity;BMP_temperature;BMP_pressure;BME280_temperature;BME280_humidity;BME280_pressure;Samples;Min_cycle;Max_cycle;Signal;HPM_P1;HPM_P2
2022/04/05 00:01:23;;;;;;;2.47;0.68;;;;;;;21.02;45.32;101765.75;4993371;28;20042;-50
2022/04/05 00:03:49;;;;;;;3.65;0.60;;;;;;;20.61;46.72;101773.38;4988109;28;20023;-51
2022/04/05 00:06:16;;;;;;;1.35;0.70;;;;;;;20.42;47.75;101772.78;5006336;28;20406;-51
2022/04/05 00:08:43;;;;;;;3.08;0.70;;;;;;;20.37;47.14;101778.16;4993750;28;20038;-51
2022/04/05 00:11:09;;;;;;;5.07;0.70;;;;;;;20.08;47.29;101774.69;4988647;28;20023;-52
2022/04/05 00:13:35;;;;;;;2.85;0.70;;;;;;;19.87;48.24;101784.38;4980535;28;20490;-52
2022/04/05 00:16:01;;;;;;;1.98;0.70;;;;;;;19.84;48.30;101775.91;5000999;28;20037;-54
2022/04/05 00:18:27;;;;;;;1.85;0.63;;;;;;;19.63;48.39;101772.84;5004743;28;20610;-54
2022/04/05 00:20:54;;;;;;;2.58;0.70;;;;;;;19.54;49.44;101763.38;5007911;28;20073;-55
2022/04/05 00:23:20;;;;;;;1.77;0.68;;;;;;;19.54;49.24;101776.97;4999710;28;20027;-54
2022/04/05 00:25:46;;;;;;;3.47;0.73;;;;;;;19.45;49.10;101770.28;4988530;28;20141;-57
2022/04/05 00:28:12;;;;;;;3.10;0.40;;;;;;;19.21;49.05;101766.81;5009522;28;20054;-57
2022/04/05 00:30:38;;;;;;;2.25;0.73;;;;;;;19.07;49.95;101754.59;5003786;28;20465;-57
2022/04/05 00:33:05;;;;;;;1.52;0.50;;;;;;;19.12;50.31;101768.28;5005194;28;20030;-57
2022/04/05 00:35:31;;;;;;;2.05;0.52;;;;;;;19.09;50.92;101760.59;4998047;28;20037;-56
2022/04/05 00:37:57;;;;;;;1.38;0.52;;;;;;;19.09;50.32;101769.56;4999680;28;20117;-47
2022/04/05 00:40:25;;;;;;;2.63;0.70;;;;;;;18.92;50.59;101782.22;4978765;28;20070;-49
2022/04/05 00:42:51;;;;;;;1.90;0.47;;;;;;;18.68;51.91;101776.03;4976730;28;20478;-51
2022/04/05 00:45:20;;;;;;;1.13;0.47;;;;;;;18.59;51.81;101772.81;4977701;28;20526;-47
2022/04/05 00:47:49;;;;;;;1.05;0.52;;;;;;;18.56;51.86;101770.59;4992636;28;20031;-47
2022/04/05 00:50:21;;;;;;;2.15;0.55;;;;;;;18.57;51.99;101771.41;4992868;28;20026;-52
2022/04/05 00:52:47;;;;;;;3.20;0.70;;;;;;;18.44;51.95;101765.16;4992368;28;20113;-48
2022/04/05 00:55:18;;;;;;;2.95;0.90;;;;;;;18.42;51.92;101761.03;4992092;28;20022;-50
2022/04/05 00:57:46;;;;;;;3.03;0.80;;;;;;;18.14;52.67;101777.97;4981679;28;20030;-48
2022/04/05 01:00:14;;;;;;;1.50;0.77;;;;;;;18.01;53.62;101765.47;4994584;28;20026;-51
2022/04/05 01:02:41;;;;;;;1.52;0.60;;;;;;;18.11;53.37;101768.44;5004597;28;20026;-52
2022/04/05 01:05:09;;;;;;;1.90;0.65;;;;;;;18.16;53.49;101768.56;5009996;28;20089;-53
2022/04/05 01:07:41;;;;;;;3.63;1.00;;;;;;;18.26;52.66;101759.00;4993907;28;20120;-53
2022/04/05 01:10:07;;;;;;;3.17;0.57;;;;;;;18.19;52.70;101753.72;5007870;28;20053;-56
2022/04/05 01:12:34;;;;;;;2.53;0.70;;;;;;;18.23;53.08;101756.78;5006518;28;20366;-56
2022/04/05 01:15:00;;;;;;;3.13;1.08;;;;;;;18.38;52.41;101759.88;5002358;28;20032;-56
2022/04/05 01:17:26;;;;;;;2.55;0.82;;;;;;;18.40;52.58;101763.16;5010101;28;20477;-57
2022/04/05 01:19:53;;;;;;;3.25;0.88;;;;;;;18.29;52.51;101759.38;5009744;28;20029;-56
2022/04/05 01:22:19;;;;;;;1.73;0.68;;;;;;;18.19;53.20;101768.09;5003761;28;20034;-56
2022/04/05 01:24:46;;;;;;;2.70;0.75;;;;;;;18.04;53.42;101770.41;4991116;28;20034;-57
2022/04/05 01:27:19;;;;;;;1.25;0.70;;;;;;;18.01;53.61;101770.06;5010545;28;20022;-57
2022/04/05 01:29:47;;;;;;;1.40;0.60;;;;;;;17.96;54.13;101778.88;5010918;28;20053;-56
2022/04/05 01:32:14;;;;;;;3.80;1.10;;;;;;;17.88;54.56;101773.81;5001831;28;20039;-54
2022/04/05 01:34:40;;;;;;;3.10;0.77;;;;;;;17.54;55.51;101773.41;5006836;28;20449;-57
2022/04/05 01:37:10;;;;;;;5.70;1.00;;;;;;;17.65;55.07;101782.63;5011621;28;20037;-58
2022/04/05 01:39:39;;;;;;;1.60;0.70;;;;;;;17.62;54.84;101780.41;4992253;28;20030;-59
2022/04/05 01:42:12;;;;;;;3.33;0.90;;;;;;;17.50;55.46;101776.84;5008006;28;20030;-61
2022/04/05 01:44:39;;;;;;;2.70;0.82;;;;;;;17.30;55.50;101785.19;4994313;28;20029;-60
2022/04/05 01:47:14;;;;;;;2.10;0.85;;;;;;;17.58;54.84;101788.16;5002207;28;20026;-61
2022/04/05 01:49:41;;;;;;;;;;;;;;;17.37;55.73;101785.94;4990455;28;20124;-59
2022/04/05 01:52:09;;;;;;;2.30;0.98;;;;;;;17.14;56.36;101786.63;4996201;28;20096;-59
2022/04/05 01:54:35;;;;;;;1.58;0.60;;;;;;;16.95;57.04;101783.13;4991792;28;20030;-59
2022/04/05 01:57:01;;;;;;;4.15;0.70;;;;;;;16.86;57.11;101789.88;4992830;28;20046;-60
2022/04/05 01:59:31;;;;;;;1.73;0.70;;;;;;;16.83;57.50;101796.56;4993913;28;20040;-61
2022/04/05 02:01:58;;;;;;;2.80;0.90;;;;;;;16.54;58.25;101798.06;5011360;28;20160;-60
2022/04/05 02:04:24;;;;;;;3.25;0.70;;;;;;;16.44;58.94;101807.75;5006229;28;20474;-58
2022/04/05 02:06:51;;;;;;;3.50;0.85;;;;;;;16.45;58.91;101810.22;4992912;28;20062;-53
2022/04/05 02:09:17;;;;;;;2.30;0.80;;;;;;;16.51;58.26;101803.91;4993020;28;20034;-52
2022/04/05 02:11:46;;;;;;;1.35;0.70;;;;;;;16.36;58.63;101800.72;4991649;28;20463;-54
2022/04/05 02:14:13;;;;;;;4.22;0.80;;;;;;;16.24;59.33;101813.28;5006549;28;20026;-52
2022/04/05 02:16:40;;;;;;;3.60;0.82;;;;;;;16.26;59.18;101806.59;4986404;28;20023;-53
2022/04/05 02:19:06;;;;;;;3.25;0.73;;;;;;;16.25;59.24;101817.66;4976307;28;20041;-50
2022/04/05 02:21:33;;;;;;;3.10;0.73;;;;;;;16.03;59.80;101817.19;4976245;28;20023;-52
2022/04/05 02:23:59;;;;;;;2.05;0.85;;;;;;;15.92;60.54;101816.00;4995667;28;20026;-53
2022/04/05 02:26:26;;;;;;;3.97;0.93;;;;;;;15.77;60.73;101824.41;4994711;28;20149;-52
2022/04/05 02:28:52;;;;;;;3.53;0.90;;;;;;;15.72;61.08;101834.22;4994273;28;20046;-52
2022/04/05 02:31:19;;;;;;;3.40;0.80;;;;;;;15.71;61.07;101832.53;4994971;28;20042;-53
2022/04/05 02:33:45;;;;;;;3.50;0.85;;;;;;;15.76;61.33;101827.31;4994054;28;20041;-51
2022/04/05 02:36:11;;;;;;;3.33;0.80;;;;;;;15.73;61.33;101833.97;4991941;28;20105;-50
2022/04/05 02:38:38;;;;;;;3.38;1.05;;;;;;;15.71;60.99;101835.22;4994220;28;20038;-52
2022/04/05 02:41:06;;;;;;;2.72;1.10;;;;;;;15.53;61.75;101834.03;4994236;28;20495;-54
2022/04/05 02:43:33;;;;;;;3.35;0.80;;;;;;;15.62;61.45;101842.72;4981176;28;20026;-51
2022/04/05 02:46:00;;;;;;;1.77;0.70;;;;;;;15.52;61.94;101840.47;4994103;28;20109;-50
2022/04/05 02:48:27;;;;;;;1.80;0.77;;;;;;;15.50;62.00;101845.28;4994264;28;20080;-53
2022/04/05 02:50:53;;;;;;;4.25;0.80;;;;;;;15.49;62.06;101840.94;4988494;28;20057;-52
2022/04/05 02:53:19;;;;;;;3.20;1.10;;;;;;;15.52;61.99;101836.97;4992257;28;20026;-52
2022/04/05 02:55:46;;;;;;;2.50;0.90;;;;;;;15.45;62.63;101837.00;4985987;28;20118;-52
2022/04/05 02:58:13;;;;;;;2.67;0.90;;;;;;;15.41;62.77;101841.16;4993113;28;20026;-53
2022/04/05 03:00:39;;;;;;;4.50;1.20;;;;;;;15.33;63.01;101844.09;4977992;28;20413;-52
2022/04/05 03:03:06;;;;;;;2.85;1.20;;;;;;;15.36;62.64;101848.22;4997464;28;20390;-52
2022/04/05 03:05:32;;;;;;;5.30;1.10;;;;;;;15.27;63.29;101855.75;4989460;28;20026;-50
2022/04/05 03:07:59;;;;;;;3.63;1.13;;;;;;;15.27;63.09;101859.28;4992057;28;20089;-52
2022/04/05 03:10:25;;;;;;;3.47;1.08;;;;;;;15.27;63.09;101871.94;4992561;28;20105;-52
2022/04/05 03:12:51;;;;;;;2.75;1.23;;;;;;;15.22;63.20;101866.34;4996155;28;20030;-53
2022/04/05 03:15:17;;;;;;;4.25;0.90;;;;;;;15.30;62.69;101866.09;4987091;28;20026;-52
2022/04/05 03:17:45;;;;;;;1.67;1.00;;;;;;;15.37;62.58;101877.69;4992276;28;20129;-52
2022/04/05 03:20:13;;;;;;;5.55;1.40;;;;;;;15.28;63.28;101884.38;5019458;28;20122;-52
2022/04/05 03:22:43;;;;;;;2.95;0.90;;;;;;;15.24;62.94;101888.53;5010094;28;20049;-52
2022/04/05 03:25:10;;;;;;;2.90;0.77;;;;;;;15.13;63.40;101899.97;4986803;28;20026;-53
2022/04/05 03:27:41;;;;;;;2.40;0.80;;;;;;;15.15;63.12;101908.66;4985719;28;20038;-53
2022/04/05 03:30:12;;;;;;;2.30;0.93;;;;;;;15.11;63.31;101910.97;4993955;28;20475;-52
2022/04/05 03:32:38;;;;;;;3.88;0.82;;;;;;;15.21;62.79;101914.06;4989565;28;20085;-51
2022/04/05 03:35:06;;;;;;;3.15;0.70;;;;;;;15.09;63.57;101926.50;4992619;28;20105;-52
2022/04/05 03:37:32;;;;;;;5.47;0.95;;;;;;;15.10;63.31;101927.31;4994007;28;20038;-52
2022/04/05 03:39:59;;;;;;;2.60;0.90;;;;;;;14.92;64.09;101930.66;4994405;28;20437;-51
2022/04/05 03:42:26;;;;;;;1.75;0.80;;;;;;;14.94;64.15;101931.31;4993574;28;20030;-52
2022/04/05 03:44:52;;;;;;;1.88;0.82;;;;;;;14.89;63.96;101936.50;4994000;28;20478;-50
2022/04/05 03:47:19;;;;;;;2.65;0.77;;;;;;;14.88;64.13;101941.06;4992662;28;20164;-51
2022/04/05 03:49:46;;;;;;;2.47;0.80;;;;;;;14.75;64.43;101943.72;4993324;28;20041;-52
2022/04/05 03:52:12;;;;;;;1.85;0.80;;;;;;;14.68;64.67;101951.00;4993340;28;20050;-52
2022/04/05 03:54:38;;;;;;;2.70;0.70;;;;;;;14.86;64.22;101956.59;4993673;28;20109;-52
2022/04/05 03:57:05;;;;;;;1.92;0.70;;;;;;;14.82;64.02;101959.91;5008551;28;20026;-52
2022/04/05 03:59:31;;;;;;;3.08;0.82;;;;;;;14.82;63.93;101960.72;4991174;28;20038;-52
2022/04/05 04:01:58;;;;;;;2.08;0.90;;;;;;;14.82;63.51;101951.81;4987333;28;20022;-49
2022/04/05 04:04:24;;;;;;;2.97;0.82;;;;;;;14.81;63.98;101961.75;4975447;28;20015;-52
2022/04/05 04:06:50;;;;;;;1.70;0.52;;;;;;;14.57;64.89;101955.13;4993497;28;20026;-52
2022/04/05 04:09:17;;;;;;;2.60;0.65;;;;;;;14.43;65.50;101959.59;4983038;28;20057;-51
2022/04/05 04:11:44;;;;;;;1.52;0.57;;;;;;;14.48;64.83;101957.16;4985720;28;20030;-51
2022/04/05 04:14:11;;;;;;;1.55;0.50;;;;;;;14.36;65.23;101945.31;5008968;28;20033;-49
2022/04/05 04:16:37;;;;;;;2.30;0.60;;;;;;;14.43;65.22;101959.59;5005167;28;20156;-50
2022/04/05 04:19:04;;;;;;;1.45;0.60;;;;;;;14.35;65.79;101959.81;4975186;28;20182;-52
2022/04/05 04:21:30;;;;;;;3.50;0.70;;;;;;;14.33;65.34;101975.34;4973451;28;20042;-51
2022/04/05 04:23:57;;;;;;;1.67;0.60;;;;;;;14.27;65.63;101976.16;4985620;28;20059;-51
2022/04/05 04:26:23;;;;;;;3.13;0.68;;;;;;;14.19;66.04;101977.16;4973879;28;20033;-52
2022/04/05 04:29:02;;;;;;;1.98;0.90;;;;;;;14.32;65.57;101992.53;4973249;28;20043;-52
2022/04/05 04:31:28;;;;;;;3.80;1.00;;;;;;;14.25;66.13;102011.38;4992243;28;20061;-52
2022/04/05 04:33:55;;;;;;;2.92;0.73;;;;;;;14.10;66.45;101999.06;4984032;28;20159;-48
2022/04/05 04:36:21;;;;;;;2.45;0.68;;;;;;;13.96;67.65;102006.28;4989684;28;20018;-49
2022/04/05 04:38:49;;;;;;;3.55;0.93;;;;;;;14.07;66.93;101997.63;4992141;28;20053;-53
2022/04/05 04:41:15;;;;;;;3.97;0.90;;;;;;;14.05;67.07;102004.22;4980037;28;20023;-52
2022/04/05 04:43:42;;;;;;;2.35;0.88;;;;;;;14.13;67.13;102015.66;4972916;28;20023;-53
2022/04/05 04:46:08;;;;;;;3.30;1.10;;;;;;;14.13;66.81;102012.97;4973231;28;20061;-52
2022/04/05 04:48:34;;;;;;;3.42;1.00;;;;;;;14.05;67.26;102018.53;4992942;28;20038;-51
2022/04/05 04:51:01;;;;;;;2.90;0.90;;;;;;;14.20;66.87;102027.28;4992612;28;20027;-53
2022/04/05 04:53:27;;;;;;;2.50;0.80;;;;;;;14.20;66.11;102034.53;4979269;28;20033;-50
2022/04/05 04:55:53;;;;;;;5.53;0.90;;;;;;;14.15;67.11;102027.06;4973307;28;20027;-50
2022/04/05 04:58:20;;;;;;;1.15;0.80;;;;;;;14.19;67.03;102032.88;4973316;28;20038;-51
2022/04/05 05:00:46;;;;;;;2.80;0.77;;;;;;;14.24;65.67;102033.94;4973521;28;20037;-52
2022/04/05 05:03:12;;;;;;;5.13;1.02;;;;;;;14.29;66.10;102036.03;4974546;28;20034;-52
2022/04/05 05:05:39;;;;;;;3.35;1.20;;;;;;;14.25;66.23;102030.22;4973363;28;20114;-49
2022/04/05 05:08:05;;;;;;;5.93;1.42;;;;;;;14.28;66.11;102034.38;4972940;28;20118;-52
2022/04/05 05:10:31;;;;;;;2.78;0.82;;;;;;;14.40;65.59;102022.00;4973075;28;20018;-52
2022/04/05 05:12:57;;;;;;;6.07;1.33;;;;;;;14.42;65.33;102024.47;4989360;28;20035;-53
2022/04/05 05:15:24;;;;;;;4.50;1.38;;;;;;;14.40;65.26;102029.25;4989030;28;20026;-53
2022/04/05 05:17:50;;;;;;;3.17;0.98;;;;;;;14.29;65.73;102027.97;4990900;28;20106;-52
2022/04/05 05:20:16;;;;;;;3.97;0.85;;;;;;;14.38;64.56;102032.16;4988545;28;20022;-52
2022/04/05 05:22:49;;;;;;;3.35;1.05;;;;;;;14.30;65.81;102026.91;4985138;28;20057;-52
2022/04/05 05:25:15;;;;;;;1.70;1.00;;;;;;;14.30;65.20;102028.78;4987916;28;20022;-51
2022/04/05 05:27:41;;;;;;;2.78;0.80;;;;;;;14.37;64.90;102019.69;5015616;28;20052;-57
2022/04/05 05:30:09;;;;;;;4.90;1.15;;;;;;;14.34;64.49;102017.41;4979318;28;20037;-51
2022/04/05 05:32:43;;;;;;;4.45;1.00;;;;;;;14.36;64.58;102017.19;5004820;28;20033;-51
2022/04/05 05:35:10;;;;;;;2.80;0.90;;;;;;;14.34;64.57;102014.72;4996153;28;20031;-52
2022/04/05 05:37:37;;;;;;;1.80;0.80;;;;;;;14.25;64.80;102018.59;4991527;28;20026;-50
2022/04/05 05:40:04;;;;;;;2.58;0.77;;;;;;;14.34;64.63;102020.09;5002801;28;20038;-51
2022/04/05 05:42:31;;;;;;;3.70;0.93;;;;;;;14.22;65.40;102024.41;4978332;28;20085;-51
2022/04/05 05:44:57;;;;;;;2.05;0.68;;;;;;;14.19;65.46;102024.81;4986387;28;20045;-50
2022/04/05 05:47:24;;;;;;;2.67;1.52;;;;;;;14.19;65.19;102022.94;4985596;28;20058;-51
2022/04/05 05:49:50;;;;;;;2.40;1.00;;;;;;;14.10;65.61;102024.16;4989088;28;20470;-49
2022/04/05 05:52:16;;;;;;;2.97;0.93;;;;;;;14.23;64.34;102023.38;4989384;28;20031;-50
2022/04/05 05:54:42;;;;;;;3.50;0.80;;;;;;;14.21;64.98;102022.72;4989615;28;20030;-51
2022/04/05 05:57:08;;;;;;;1.45;0.70;;;;;;;14.22;65.20;102019.03;5003403;28;20172;-50
2022/04/05 05:59:35;;;;;;;1.77;0.85;;;;;;;14.22;64.36;102019.03;4996261;28;20105;-52
2022/04/05 06:02:01;;;;;;;3.75;1.30;;;;;;;14.20;64.45;102015.69;4981750;28;20835;-53
2022/04/05 06:04:27;;;;;;;2.92;0.90;;;;;;;14.14;64.93;102013.81;4977577;28;20360;-50
2022/04/05 06:06:53;;;;;;;2.75;0.70;;;;;;;14.14;64.96;102016.50;4990463;28;20105;-51
2022/04/05 06:09:19;;;;;;;0.90;0.60;;;;;;;14.11;64.53;102012.34;4977140;28;20038;-50
2022/04/05 06:11:46;;;;;;;2.67;0.60;;;;;;;14.09;64.95;102010.88;4987894;28;20030;-51
2022/04/05 06:14:12;;;;;;;2.65;0.95;;;;;;;14.03;65.08;102015.19;5011316;28;20044;-51
2022/04/05 06:16:38;;;;;;;2.42;0.85;;;;;;;14.02;64.86;102005.47;5012772;28;20029;-50
2022/04/05 06:19:04;;;;;;;3.72;0.70;;;;;;;13.94;64.89;102009.19;4977675;28;20042;-51
2022/04/05 06:21:30;;;;;;;1.83;0.80;;;;;;;13.90;64.78;102015.16;4988322;28;20021;-49
2022/04/05 06:23:57;;;;;;;3.03;0.88;;;;;;;13.94;64.84;102021.81;5012780;28;20044;-52
2022/04/05 06:26:23;;;;;;;3.38;0.80;;;;;;;13.84;64.78;102022.16;5002291;28;20022;-51
2022/04/05 06:28:49;;;;;;;5.95;1.25;;;;;;;13.85;64.50;102028.38;4994395;28;20069;-49
2022/04/05 06:31:15;;;;;;;3.58;1.17;;;;;;;14.05;64.75;102028.47;5010352;28;20033;-51
2022/04/05 06:33:42;;;;;;;1.77;0.93;;;;;;;13.97;65.18;102040.22;5011621;28;20025;-52
2022/04/05 06:36:08;;;;;;;3.47;0.95;;;;;;;13.74;65.32;102037.81;4992890;28;20034;-50
2022/04/05 06:38:34;;;;;;;5.85;1.13;;;;;;;13.42;66.55;102023.13;4991148;28;20371;-48
2022/04/05 06:41:01;;;;;;;3.08;1.35;;;;;;;13.59;66.68;102031.72;5020570;28;20133;-48
2022/04/05 06:43:28;;;;;;;2.95;1.25;;;;;;;13.52;66.37;102033.53;4994452;28;20023;-52
2022/04/05 06:45:54;;;;;;;1.88;0.85;;;;;;;13.46;66.68;102030.59;4993383;28;20116;-49
2022/04/05 06:48:20;;;;;;;4.68;0.98;;;;;;;13.75;66.93;102034.09;5012359;28;20056;-48
2022/04/05 06:50:47;;;;;;;2.35;0.50;;;;;;;13.62;66.18;102034.84;5014627;28;20057;-49
2022/04/05 06:53:13;;;;;;;0.82;0.50;;;;;;;13.59;66.27;102024.47;4998570;28;20577;-51
2022/04/05 06:55:40;;;;;;;2.20;0.65;;;;;;;13.54;67.28;102029.63;4994843;28;20366;-49
2022/04/05 06:58:08;;;;;;;2.65;0.70;;;;;;;13.53;66.40;102025.28;5009133;28;20382;-52
2022/04/05 07:00:34;;;;;;;0.95;0.50;;;;;;;13.55;65.99;102022.38;5011561;28;20026;-52
2022/04/05 07:03:00;;;;;;;1.13;0.52;;;;;;;13.54;66.48;102021.53;4995665;28;20076;-52
2022/04/05 07:05:28;;;;;;;1.60;0.68;;;;;;;13.45;67.08;102020.06;4997263;28;20085;-52
2022/04/05 07:07:55;;;;;;;1.50;0.50;;;;;;;13.47;66.59;102020.69;5008548;28;20030;-47
2022/04/05 07:10:22;;;;;;;1.17;0.30;;;;;;;13.32;66.82;102017.25;5012236;28;20491;-49
2022/04/05 07:12:49;;;;;;;1.13;0.30;;;;;;;13.35;66.72;102015.00;5011441;28;20053;-52
2022/04/05 07:15:16;;;;;;;2.38;0.60;;;;;;;13.43;66.81;102022.91;4987574;28;20046;-51
2022/04/05 07:17:43;;;;;;;1.35;0.50;;;;;;;13.47;66.14;102028.75;4990627;28;20037;-52
2022/04/05 07:20:10;;;;;;;0.40;0.32;;;;;;;13.40;66.28;102020.63;5008342;28;20033;-50
2022/04/05 07:22:44;;;;;;;0.60;0.30;;;;;;;13.42;66.54;102023.13;4992456;28;20072;-50
2022/04/05 07:25:10;;;;;;;2.83;0.47;;;;;;;13.51;65.20;102023.81;4995455;28;20117;-53
2022/04/05 07:27:36;;;;;;;0.95;0.20;;;;;;;13.51;65.02;102026.50;5011818;28;20026;-52
2022/04/05 07:30:03;;;;;;;2.38;0.70;;;;;;;13.60;66.07;102028.84;5007964;28;20048;-48
2022/04/05 07:32:39;;;;;;;3.28;0.68;;;;;;;13.41;66.63;102027.66;4993580;28;20030;-52
2022/04/05 07:35:06;;;;;;;3.83;0.70;;;;;;;13.37;66.87;102031.78;5002336;28;20034;-53
2022/04/05 07:37:33;;;;;;;2.83;0.85;;;;;;;13.57;66.64;102033.78;5009060;28;20493;-52
2022/04/05 07:39:59;;;;;;;3.10;0.80;;;;;;;13.51;66.34;102030.03;5013373;28;20401;-50
2022/04/05 07:42:27;;;;;;;2.53;0.90;;;;;;;13.41;66.43;102032.22;4995154;28;20389;-49
2022/04/05 07:44:53;;;;;;;2.28;0.95;;;;;;;13.37;66.46;102034.47;4994484;28;20030;-52
2022/04/05 07:47:19;;;;;;;3.90;1.20;;;;;;;12.90;68.73;102037.75;5006699;28;20033;-52
2022/04/05 07:49:46;;;;;;;2.25;0.90;;;;;;;12.34;70.31;102030.34;5011914;28;20041;-49
2022/04/05 07:52:12;;;;;;;3.15;0.95;;;;;;;12.50;69.54;102037.34;5004304;28;20049;-51
2022/04/05 07:54:38;;;;;;;3.15;1.00;;;;;;;12.50;69.46;102033.84;5013099;28;20103;-52
2022/04/05 07:57:08;;;;;;;2.75;0.90;;;;;;;12.39;69.97;102029.78;5011307;28;20026;-52
2022/04/05 07:59:34;;;;;;;2.97;1.00;;;;;;;12.64;68.24;102024.88;5011596;28;20116;-50
2022/04/05 08:02:01;;;;;;;4.82;1.10;;;;;;;13.00;67.51;102021.31;4999923;28;20385;-51
2022/04/05 08:04:27;;;;;;;2.00;1.10;;;;;;;12.76;67.42;102015.28;4996564;28;20062;-52
2022/04/05 08:06:56;;;;;;;2.03;0.80;;;;;;;12.29;69.54;102016.66;5008352;28;20156;-52
2022/04/05 08:09:23;;;;;;;2.85;1.20;;;;;;;12.46;68.97;102022.63;4999312;28;20084;-51
2022/04/05 08:11:49;;;;;;;2.80;1.00;;;;;;;12.49;68.45;102016.03;4996867;28;20041;-50
2022/04/05 08:14:15;;;;;;;2.67;1.05;;;;;;;12.20;69.79;102015.09;4995768;28;20022;-52
2022/04/05 08:16:42;;;;;;;3.85;1.23;;;;;;;11.84;71.19;102013.19;4995216;28;20125;-50
2022/04/05 08:19:09;;;;;;;2.83;1.10;;;;;;;12.26;69.35;102006.28;5011648;28;20028;-50
2022/04/05 08:21:36;;;;;;;1.35;0.68;;;;;;;12.25;69.01;102014.53;5008549;28;20038;-49
2022/04/05 08:24:04;;;;;;;3.30;1.00;;;;;;;12.29;68.42;102016.66;5007368;28;20405;-49
2022/04/05 08:26:30;;;;;;;2.28;0.88;;;;;;;12.34;68.29;102010.72;5010491;28;20033;-48
2022/04/05 08:28:56;;;;;;;1.92;0.85;;;;;;;12.33;68.30;102006.38;5010416;28;20054;-49
2022/04/05 08:31:24;;;;;;;2.45;0.80;;;;;;;12.39;68.02;102003.75;5003998;28;20057;-50
2022/04/05 08:33:50;;;;;;;3.70;0.90;;;;;;;12.49;66.89;102000.75;4995433;28;20480;-49
2022/04/05 08:36:17;;;;;;;2.47;0.90;;;;;;;12.55;68.60;102000.00;4998380;28;20470;-48
2022/04/05 08:38:43;;;;;;;3.50;0.63;;;;;;;12.36;69.06;102009.50;5005996;28;20635;-48
2022/04/05 08:41:12;;;;;;;1.98;0.73;;;;;;;12.41;68.84;102011.63;5009079;28;20123;-50
2022/04/05 08:43:43;;;;;;;3.53;1.10;;;;;;;11.83;71.72;101998.13;5007570;28;20362;-48
2022/04/05 08:46:10;;;;;;;1.95;0.70;;;;;;;11.88;70.87;102002.91;5007770;28;20029;-51
2022/04/05 08:48:37;;;;;;;1.52;0.80;;;;;;;12.02;69.87;101999.38;5003701;28;20121;-52
2022/04/05 08:51:04;;;;;;;5.25;1.10;;;;;;;11.75;71.29;102006.22;4992894;28;20030;-49
2022/04/05 08:53:33;;;;;;;2.10;0.85;;;;;;;11.79;70.67;102012.88;4991987;28;20087;-49
2022/04/05 08:56:00;;;;;;;1.70;0.80;;;;;;;11.81;70.54;102002.81;4992554;28;20040;-48
2022/04/05 08:58:26;;;;;;;1.52;0.65;;;;;;;11.56;71.47;102009.47;4992625;28;20424;-51
2022/04/05 09:00:53;;;;;;;1.40;0.70;;;;;;;11.68;70.81;102013.34;4992633;28;20050;-48
2022/04/05 09:03:19;;;;;;;2.83;0.77;;;;;;;11.08;73.35;102012.41;4992653;28;20056;-51
2022/04/05 09:05:47;;;;;;;4.80;1.00;;;;;;;11.25;72.73;102013.09;4992570;28;20089;-52
2022/04/05 09:08:23;;;;;;;1.85;0.73;;;;;;;11.60;71.04;102008.91;4992110;28;20022;-48
2022/04/05 09:10:55;;;;;;;1.98;0.73;;;;;;;11.43;71.64;102009.25;4992524;28;20077;-52
2022/04/05 09:13:25;;;;;;;2.83;0.93;;;;;;;11.35;72.13;102002.97;4991038;28;20018;-47
2022/04/05 09:15:56;;;;;;;1.73;0.60;;;;;;;11.61;71.19;102007.06;4972985;28;20383;-50
2022/04/05 09:18:31;;;;;;;3.53;0.73;;;;;;;11.54;70.98;102009.63;4975845;28;20049;-48
2022/04/05 09:20:57;;;;;;;3.63;0.80;;;;;;;11.38;71.23;102012.47;4992140;28;20038;-48
2022/04/05 09:23:29;;;;;;;1.85;0.80;;;;;;;11.09;72.69;102014.06;4991758;28;20032;-51
2022/04/05 09:25:58;;;;;;;1.33;0.52;;;;;;;11.20;71.79;102015.50;4992268;28;20030;-48
2022/04/05 09:28:33;;;;;;;1.52;0.50;;;;;;;11.15;71.95;102017.03;4991938;28;20061;-51
2022/04/05 09:31:01;;;;;;;2.08;0.60;;;;;;;11.19;71.76;102002.28;4992316;28;20050;-51
2022/04/05 09:33:33;;;;;;;2.20;0.70;;;;;;;11.13;71.63;101998.47;4991811;28;20036;-50
2022/04/05 09:36:11;;;;;;;1.08;0.70;;;;;;;10.67;73.67;101997.69;4992536;28;20030;-50
2022/04/05 09:38:38;;;;;;;1.00;0.50;;;;;;;10.47;74.36;101991.94;4991758;28;20394;-48
2022/04/05 09:41:19;;;;;;;2.20;0.50;;;;;;;10.51;74.21;101987.91;4992235;28;20033;-51
2022/04/05 09:44:00;;;;;;;1.88;0.60;;;;;;;10.88;72.76;101994.31;4991942;28;20113;-52
2022/04/05 09:46:28;;;;;;;1.80;0.70;;;;;;;11.13;71.68;101982.41;4992232;28;20023;-49
2022/04/05 09:49:10;;;;;;;1.48;0.75;;;;;;;11.35;70.69;101986.03;4991843;28;20037;-52
2022/04/05 09:51:46;;;;;;;2.60;0.57;;;;;;;11.25;70.35;101986.31;4991746;28;20103;-51
2022/04/05 09:54:30;;;;;;;3.17;0.73;;;;;;;11.46;71.30;101984.75;4992435;28;20026;-52
2022/04/05 09:57:03;;;;;;;2.15;0.68;;;;;;;11.42;71.26;101986.13;4992001;28;20443;-50
2022/04/05 09:59:41;;;;;;;2.58;0.65;;;;;;;11.64;71.44;101979.84;4991787;28;20375;-50
2022/04/05 10:02:12;;;;;;;3.67;0.68;;;;;;;11.46;71.68;101974.88;4991765;28;20505;-48
2022/04/05 10:04:59;;;;;;;1.23;0.50;;;;;;;11.41;71.32;101981.78;4991597;28;20035;-52
2022/04/05 10:07:28;;;;;;;4.07;0.63;;;;;;;11.36;71.35;101976.97;4991623;28;20079;-51
2022/04/05 10:09:55;;;;;;;2.53;0.57;;;;;;;11.27;71.78;101981.59;4992508;28;20069;-50
2022/04/05 10:12:21;;;;;;;3.08;0.90;;;;;;;11.27;71.63;101989.66;4991578;28;20058;-48
2022/04/05 10:14:48;;;;;;;2.40;0.70;;;;;;;11.34;70.86;101990.56;4979023;28;20066;-48
2022/04/05 10:17:16;;;;;;;2.88;0.90;;;;;;;11.38;70.17;101988.34;4972436;28;20030;-48
2022/04/05 10:19:45;;;;;;;3.25;0.98;;;;;;;11.40;69.26;101990.88;4971718;28;20058;-48
2022/04/05 10:22:14;;;;;;;1.10;0.50;;;;;;;11.38;68.54;101988.34;4993096;28;20481;-47
2022/04/05 10:24:40;;;;;;;1.60;0.63;;;;;;;11.30;68.80;101991.13;5002383;28;20114;-48
2022/04/05 10:27:08;;;;;;;0.60;0.50;;;;;;;11.25;68.82;101986.31;4991752;28;20109;-48
2022/04/05 10:29:35;;;;;;;0.95;0.50;;;;;;;11.25;68.47;101985.47;4992034;28;20046;-49
2022/04/05 10:32:10;;;;;;;1.40;0.60;;;;;;;11.31;68.04;101980.22;4991433;28;20058;-48
2022/04/05 10:35:02;;;;;;;1.00;0.75;;;;;;;11.28;67.60;101969.88;4996815;28;20029;-48
2022/04/05 10:37:38;;;;;;;2.65;0.90;;;;;;;11.49;68.08;101976.34;5014419;28;20040;-51
2022/04/05 10:40:10;;;;;;;2.25;0.65;;;;;;;11.30;68.47;101970.50;5012308;28;20092;-48
2022/04/05 10:42:37;;;;;;;6.75;1.90;;;;;;;11.44;68.97;101979.59;5014511;28;20029;-50
2022/04/05 10:45:17;;;;;;;5.47;1.42;;;;;;;11.45;68.67;101986.63;5012252;28;20033;-47
2022/04/05 10:48:09;;;;;;;6.38;1.30;;;;;;;11.32;69.00;101992.59;5007903;28;20486;-49
2022/04/05 10:50:36;;;;;;;6.15;1.10;;;;;;;11.25;69.69;101996.19;5005194;28;20339;-50
2022/04/05 10:53:13;;;;;;;5.53;1.45;;;;;;;11.33;69.46;102006.84;5014132;28;20083;-50
2022/04/05 10:56:04;;;;;;;6.32;1.83;;;;;;;11.16;69.63;102006.16;5008018;28;20033;-48
2022/04/05 10:58:52;;;;;;;5.95;1.45;;;;;;;11.05;69.46;102002.06;5014347;28;20037;-50
2022/04/05 11:01:25;;;;;;;5.55;1.83;;;;;;;10.98;69.05;102000.28;5013580;28;20045;-47
2022/04/05 11:04:20;;;;;;;6.80;1.80;;;;;;;11.02;68.85;101998.91;5012939;28;20492;-49
2022/04/05 11:07:01;;;;;;;9.65;1.85;;;;;;;10.97;68.82;102003.97;4994770;28;20394;-47
2022/04/05 11:09:53;;;;;;;4.32;1.60;;;;;;;10.95;68.41;102003.34;5004570;28;20116;-47
2022/04/05 11:12:28;;;;;;;8.88;2.13;;;;;;;11.00;68.00;102003.63;5013961;28;20512;-46
2022/04/05 11:15:05;;;;;;;11.73;1.77;;;;;;;10.90;68.42;102014.59;4996954;28;20080;-48
2022/04/05 11:17:33;;;;;;;6.28;1.77;;;;;;;10.82;68.11;102010.09;4994119;28;20034;-48
2022/04/05 11:20:01;;;;;;;9.02;1.88;;;;;;;10.87;68.36;102008.75;4993178;28;20038;-47
2022/04/05 11:22:36;;;;;;;5.25;1.95;;;;;;;10.90;68.66;102016.44;4994290;28;20033;-47
2022/04/05 11:25:07;;;;;;;7.63;1.67;;;;;;;10.82;68.63;102004.75;4994230;28;20393;-47
2022/04/05 11:27:52;;;;;;;5.15;1.70;;;;;;;10.88;69.55;101999.69;4993221;28;20092;-47
2022/04/05 11:30:27;;;;;;;8.07;1.83;;;;;;;10.78;69.76;101999.94;4995327;28;20038;-48